createdAt,value
2019-05-03T00:01:24.106Z,5.00
2019-05-03T00:03:57.834Z,6.00
2019-05-03T00:06:32.063Z,5.50
2019-05-03T00:09:07.090Z,6.00
2019-05-03T00:11:42.206Z,5.50
2019-05-03T00:14:16.112Z,6.00
2019-05-03T00:16:49.821Z,5.00
2019-05-03T00:19:23.626Z,5.50
2019-05-03T00:21:57.346Z,4.00
2019-05-03T00:24:32.152Z,4.50
2019-05-03T00:27:06.057Z,5.00
2019-05-03T00:29:41.645Z,5.75
2019-05-03T00:32:15.210Z,6.00
2019-05-03T00:34:48.945Z,6.00
2019-05-03T00:37:22.668Z,5.00
2019-05-03T00:39:56.476Z,5.00
2019-05-03T00:42:31.751Z,4.75
2019-05-03T00:45:08.370Z,6.80
2019-05-03T00:47:42.225Z,6.00
2019-05-03T00:50:15.996Z,6.00
2019-05-03T00:52:51.455Z,5.40
2019-05-03T00:55:25.437Z,5.00
2019-05-03T00:57:59.141Z,5.75
2019-05-03T01:00:32.867Z,5.75
2019-05-03T01:03:06.585Z,5.00
2019-05-03T01:05:42.233Z,5.50
2019-05-03T01:08:15.752Z,4.00
2019-05-03T01:10:51.510Z,4.00
2019-05-03T01:13:24.934Z,3.00
2019-05-03T01:15:58.682Z,6.00
2019-05-03T01:18:32.535Z,4.25
2019-05-03T01:21:06.394Z,4.50
2019-05-03T01:23:41.893Z,3.00
2019-05-03T01:26:15.597Z,4.00
2019-05-03T01:28:49.297Z,4.60
2019-05-03T01:31:23.117Z,4.00
2019-05-03T01:33:56.910Z,5.00
2019-05-03T01:36:32.102Z,4.25
2019-05-03T01:39:06.007Z,3.00
2019-05-03T01:41:41.596Z,4.00
2019-05-03T01:44:15.127Z,5.25
2019-05-03T01:46:48.851Z,5.75
2019-05-03T01:49:22.850Z,4.00
2019-05-03T01:51:56.667Z,4.00
2019-05-03T01:54:32.021Z,5.00
2019-05-03T01:57:05.899Z,5.50
2019-05-03T01:59:39.613Z,4.00
2019-05-03T02:02:13.335Z,4.75
2019-05-03T02:04:47.119Z,4.00
2019-05-03T02:07:22.341Z,4.75
2019-05-03T02:09:56.233Z,7.40
2019-05-03T02:12:29.962Z,3.50
2019-05-03T02:15:07.946Z,4.00
2019-05-03T02:17:42.695Z,4.00
2019-05-03T02:20:16.556Z,6.00
2019-05-03T02:22:52.063Z,8.00
2019-05-03T02:25:26.557Z,8.00
2019-05-03T02:28:01.927Z,5.40
2019-05-03T02:30:35.876Z,5.00
2019-05-03T02:33:09.582Z,2.00
2019-05-03T02:35:43.305Z,3.20
2019-05-03T02:38:17.030Z,4.00
2019-05-03T02:40:53.143Z,5.00
2019-05-03T02:43:26.478Z,5.80
2019-05-03T02:46:00.307Z,4.60
2019-05-03T02:48:36.397Z,4.75
2019-05-03T02:51:09.436Z,5.00
2019-05-03T02:53:45.515Z,5.00
2019-05-03T02:56:22.597Z,5.00
2019-05-03T02:58:55.715Z,5.00
2019-05-03T03:01:29.433Z,4.75
2019-05-03T03:04:05.285Z,7.25
2019-05-03T03:06:39.361Z,5.00
2019-05-03T03:09:16.463Z,6.20
2019-05-03T03:11:50.641Z,7.00
2019-05-03T03:14:25.739Z,7.00
2019-05-03T03:16:59.653Z,4.00
2019-05-03T03:19:35.285Z,5.80
2019-05-03T03:22:08.799Z,4.00
2019-05-03T03:24:45.541Z,10.50
2019-05-03T03:27:21.441Z,0.80
2019-05-03T03:30:07.730Z,8.00
2019-05-03T03:32:41.832Z,8.00
2019-05-03T03:35:20.666Z,8.75
2019-05-03T03:37:55.914Z,9.50
2019-05-03T03:40:29.916Z,7.00
2019-05-03T03:43:05.339Z,5.00
2019-05-03T03:45:39.059Z,7.50
2019-05-03T03:48:15.783Z,9.00
2019-05-03T03:50:50.592Z,7.50
2019-05-03T03:53:26.462Z,7.00
2019-05-03T03:55:59.733Z,5.00
2019-05-03T03:58:35.966Z,7.00
2019-05-03T04:01:09.355Z,7.00
2019-05-03T04:03:45.769Z,11.00
2019-05-03T04:06:18.762Z,7.00
2019-05-03T04:08:52.561Z,7.75
2019-05-03T04:11:26.332Z,7.25
2019-05-03T04:14:00.057Z,6.50
2019-05-03T04:16:36.222Z,7.00
2019-05-03T04:19:09.199Z,6.00
2019-05-03T04:21:45.326Z,5.00
2019-05-03T04:24:18.705Z,4.67
2019-05-03T04:26:52.437Z,6.00
2019-05-03T04:29:26.171Z,5.50
2019-05-03T04:31:59.901Z,8.00
2019-05-03T04:34:35.928Z,6.80
2019-05-03T04:37:09.071Z,6.50
2019-05-03T04:39:45.371Z,8.00
2019-05-03T04:42:18.331Z,8.00
2019-05-03T04:44:52.087Z,6.00
2019-05-03T04:47:26.605Z,7.00
2019-05-03T04:50:00.669Z,7.40
2019-05-03T04:52:36.149Z,6.00
2019-05-03T04:55:10.026Z,7.00
2019-05-03T04:57:46.859Z,8.40
2019-05-03T05:00:19.159Z,7.75
2019-05-03T05:02:55.175Z,5.40
2019-05-03T05:05:28.255Z,7.00
2019-05-03T05:08:02.248Z,7.00
2019-05-03T05:10:37.031Z,9.80
2019-05-03T05:13:10.733Z,6.50
2019-05-03T05:15:45.960Z,9.50
2019-05-03T05:18:20.004Z,7.75
2019-05-03T05:20:55.508Z,5.00
2019-05-03T05:23:29.104Z,7.50
2019-05-03T05:26:02.815Z,7.50
2019-05-03T05:28:36.518Z,7.50
2019-05-03T05:31:10.192Z,7.50
2019-05-03T05:33:44.606Z,7.00
2019-05-03T05:36:18.476Z,6.50
2019-05-03T05:38:52.162Z,10.50
2019-05-03T05:41:25.956Z,8.80
2019-05-03T05:43:59.666Z,7.00
2019-05-03T05:46:35.076Z,7.00
2019-05-03T05:49:08.933Z,7.00
2019-05-03T05:51:44.329Z,7.00
2019-05-03T05:54:18.190Z,7.00
2019-05-03T05:56:51.898Z,7.00
2019-05-03T05:59:25.601Z,9.25
2019-05-03T06:01:59.281Z,4.00
2019-05-03T06:04:34.816Z,5.00
2019-05-03T06:07:08.599Z,7.25
2019-05-03T06:09:42.314Z,8.80
2019-05-03T06:12:16.053Z,2.00
2019-05-03T06:14:49.751Z,6.00
2019-05-03T06:17:24.559Z,6.50
2019-05-03T06:19:58.324Z,8.50
2019-05-03T06:22:35.285Z,4.00
2019-05-03T06:25:08.964Z,8.00
2019-05-03T06:27:42.669Z,7.00
2019-05-03T06:30:16.355Z,5.50
2019-05-03T06:32:50.045Z,5.00
2019-05-03T06:35:24.409Z,7.00
2019-05-03T06:37:58.204Z,5.00
2019-05-03T06:40:31.893Z,5.50
2019-05-03T06:43:09.782Z,8.00
2019-05-03T06:45:41.262Z,5.00
2019-05-03T06:48:17.743Z,4.00
2019-05-03T06:50:51.849Z,4.00
2019-05-03T06:53:25.601Z,5.00
2019-05-03T06:55:59.323Z,4.40
2019-05-03T06:58:35.748Z,3.00
2019-05-03T07:01:11.237Z,3.00
2019-05-03T07:03:44.777Z,4.00
2019-05-03T07:06:18.669Z,4.00
2019-05-03T07:08:52.358Z,3.50
2019-05-03T07:11:26.061Z,6.00
2019-05-03T07:13:59.882Z,2.00
2019-05-03T07:16:35.358Z,4.00
2019-05-03T07:19:09.025Z,4.60
2019-05-03T07:21:44.567Z,2.00
2019-05-03T07:24:18.131Z,5.00
2019-05-03T07:26:51.829Z,2.00
2019-05-03T07:29:25.653Z,4.00
2019-05-03T07:31:59.407Z,3.50
2019-05-03T07:34:34.935Z,2.00
2019-05-03T07:37:08.568Z,2.00
2019-05-03T07:39:42.293Z,4.00
2019-05-03T07:42:16.032Z,4.80
2019-05-03T07:44:49.741Z,4.00
2019-05-03T07:47:24.636Z,4.00
2019-05-03T07:49:58.545Z,2.00
2019-05-03T07:52:32.316Z,2.00
2019-05-03T07:55:06.063Z,2.00
2019-05-03T07:57:39.768Z,1.75
2019-05-03T08:00:15.000Z,4.00
2019-05-03T08:02:48.880Z,2.00
2019-05-03T08:05:24.561Z,4.50
2019-05-03T08:07:57.974Z,4.00
2019-05-03T08:10:31.689Z,2.00
2019-05-03T08:13:05.390Z,4.00
2019-05-03T08:15:39.073Z,4.40
2019-05-03T08:18:15.273Z,2.00
2019-05-03T08:20:48.786Z,4.00
2019-05-03T08:23:27.549Z,4.00
2019-05-03T08:25:57.996Z,1.00
2019-05-03T08:28:31.692Z,2.50
2019-05-03T08:31:05.393Z,4.00
2019-05-03T08:33:39.070Z,2.00
2019-05-03T08:36:15.494Z,2.00
2019-05-03T08:38:49.385Z,2.00
2019-05-03T08:41:26.023Z,4.00
2019-05-03T08:43:59.817Z,1.75
2019-05-03T08:46:35.538Z,2.00
2019-05-03T08:49:09.125Z,3.00
2019-05-03T08:51:44.391Z,1.00
2019-05-03T08:54:18.223Z,1.00
2019-05-03T08:56:51.947Z,3.00
2019-05-03T08:59:31.591Z,2.75
2019-05-03T09:02:03.607Z,1.25
2019-05-03T09:04:39.355Z,2.00
2019-05-03T09:07:11.917Z,2.50
2019-05-03T09:09:46.142Z,2.00
2019-05-03T09:12:19.973Z,2.75
2019-05-03T09:14:54.669Z,2.75
2019-05-03T09:17:28.645Z,2.25
2019-05-03T09:20:05.188Z,2.25
2019-05-03T09:22:39.131Z,2.00
2019-05-03T09:25:15.460Z,2.40
2019-05-03T09:27:49.279Z,3.25
2019-05-03T09:30:24.999Z,2.00
2019-05-03T09:32:58.400Z,1.40
2019-05-03T09:35:35.298Z,2.00
2019-05-03T09:38:07.518Z,2.00
2019-05-03T09:40:41.272Z,2.00
2019-05-03T09:43:15.217Z,2.75
2019-05-03T09:45:54.797Z,2.25
2019-05-03T09:48:28.666Z,2.50
2019-05-03T09:51:02.456Z,2.00
2019-05-03T09:53:36.146Z,2.50
2019-05-03T09:56:09.915Z,1.25
2019-05-03T09:58:45.970Z,1.80
2019-05-03T10:01:19.056Z,1.67
2019-05-03T10:03:54.788Z,1.00
2019-05-03T10:06:28.304Z,2.00
2019-05-03T10:09:02.116Z,3.00
2019-05-03T10:11:35.916Z,1.00
2019-05-03T10:14:09.614Z,2.40
2019-05-03T10:16:44.887Z,4.50
2019-05-03T10:19:18.754Z,2.20
2019-05-03T10:21:52.483Z,2.75
2019-05-03T10:24:26.268Z,3.00
2019-05-03T10:27:00.037Z,5.00
2019-05-03T10:29:33.766Z,5.00
2019-05-03T10:32:07.531Z,2.00
2019-05-03T10:34:41.424Z,4.50
2019-05-03T10:37:15.221Z,5.00
2019-05-03T10:39:48.916Z,3.00
2019-05-03T10:42:24.429Z,2.00
2019-05-03T10:44:58.247Z,2.50
2019-05-03T10:47:31.980Z,5.00
2019-05-03T10:50:07.442Z,2.00
2019-05-03T10:52:41.170Z,5.75
2019-05-03T10:55:15.937Z,3.00
2019-05-03T10:57:49.967Z,5.00
2019-05-03T11:00:42.452Z,3.00
2019-05-03T11:02:59.283Z,6.00
2019-05-03T11:05:34.795Z,3.00
2019-05-03T11:08:08.555Z,5.50
2019-05-03T11:10:42.359Z,4.50
2019-05-03T11:13:16.082Z,5.00
2019-05-03T11:15:49.770Z,2.00
2019-05-03T11:18:25.182Z,2.00
2019-05-03T11:20:58.956Z,2.00
2019-05-03T11:23:34.579Z,5.00
2019-05-03T11:26:08.073Z,5.00
2019-05-03T11:28:41.786Z,3.00
2019-05-03T11:31:15.632Z,2.25
2019-05-03T11:33:49.402Z,4.50
2019-05-03T11:36:23.100Z,2.00
2019-05-03T11:38:56.790Z,3.00
2019-05-03T11:41:32.832Z,3.00
2019-05-03T11:44:05.940Z,2.20
2019-05-03T11:46:39.649Z,4.00
2019-05-03T11:49:14.868Z,3.50
2019-05-03T11:51:48.656Z,2.00
2019-05-03T11:54:22.344Z,2.25
2019-05-03T11:56:56.067Z,2.20
2019-05-03T11:59:29.794Z,1.50
2019-05-03T12:02:04.775Z,3.00
2019-05-03T12:04:38.769Z,2.00
2019-05-03T12:07:15.101Z,2.00
2019-05-03T12:09:48.958Z,2.25
2019-05-03T12:12:24.478Z,3.00
2019-05-03T12:14:58.239Z,1.40
2019-05-03T12:17:32.223Z,2.50
2019-05-03T12:20:08.113Z,2.75
2019-05-03T12:22:42.525Z,2.75
2019-05-03T12:25:17.564Z,2.00
2019-05-03T12:27:51.651Z,3.00
2019-05-03T12:30:27.629Z,2.20
2019-05-03T12:33:00.749Z,2.00
2019-05-03T12:35:35.773Z,3.00
2019-05-03T12:38:09.805Z,3.00
2019-05-03T12:40:45.426Z,3.00
2019-05-03T12:43:18.925Z,2.00
2019-05-03T12:45:52.636Z,3.00
2019-05-03T12:48:26.323Z,3.00
2019-05-03T12:51:00.429Z,4.50
2019-05-03T12:53:37.823Z,2.75
2019-05-03T12:56:13.089Z,4.20
2019-05-03T12:58:45.951Z,3.00
2019-05-03T13:01:19.731Z,3.00
2019-05-03T13:03:55.352Z,3.20
2019-05-03T13:06:28.862Z,3.00
2019-05-03T13:09:02.645Z,2.60
2019-05-03T13:11:36.686Z,4.50
2019-05-03T13:14:10.469Z,3.00
2019-05-03T13:16:44.671Z,3.00
2019-05-03T13:19:18.544Z,5.50
2019-05-03T13:21:52.269Z,5.00
2019-05-03T13:24:26.142Z,4.50
2019-05-03T13:26:59.979Z,5.25
2019-05-03T13:29:34.815Z,5.80
2019-05-03T13:32:08.784Z,1.00
2019-05-03T13:34:44.571Z,5.00
2019-05-03T13:37:17.906Z,3.80
2019-05-03T13:39:51.615Z,3.00
2019-05-03T13:42:25.380Z,4.50
2019-05-03T13:47:44.692Z,4.00
2019-05-03T13:50:18.606Z,7.17
2019-05-03T13:52:52.510Z,4.50
2019-05-03T13:55:26.191Z,7.25
2019-05-03T13:57:59.915Z,5.50
2019-05-03T14:00:34.583Z,5.25
2019-05-03T14:03:08.484Z,4.50
2019-05-03T14:05:42.176Z,5.00
2019-05-03T14:08:15.902Z,5.50
2019-05-03T14:10:49.606Z,3.80
2019-05-03T14:13:23.303Z,3.00
2019-05-03T14:15:56.978Z,3.00
2019-05-03T14:18:30.744Z,3.80
2019-05-03T14:21:05.137Z,6.00
2019-05-03T14:23:39.019Z,5.50
2019-05-03T14:26:15.021Z,5.60
2019-05-03T14:28:48.261Z,3.50
2019-05-03T14:31:21.967Z,5.25
2019-05-03T14:33:56.040Z,5.40
2019-05-03T14:36:29.814Z,6.00
2019-05-03T14:39:05.362Z,5.00
2019-05-03T14:41:39.055Z,5.00
2019-05-03T14:44:15.623Z,3.60
2019-05-03T14:46:48.322Z,5.00
2019-05-03T14:49:22.034Z,6.00
2019-05-03T14:51:56.717Z,5.60
2019-05-03T14:54:30.611Z,4.00
2019-05-03T14:57:04.302Z,5.00
2019-05-03T14:59:38.005Z,6.00
2019-05-03T15:02:11.706Z,4.75
2019-05-03T15:04:45.415Z,5.00
2019-05-03T15:07:19.112Z,4.50
2019-05-03T15:09:55.182Z,3.00
2019-05-03T15:12:28.238Z,3.00
2019-05-03T15:15:02.025Z,4.40
2019-05-03T15:17:35.742Z,3.00
2019-05-03T15:20:09.429Z,3.00
2019-05-03T15:22:45.292Z,3.00
2019-05-03T15:25:18.577Z,3.00
2019-05-03T15:27:52.286Z,3.50
2019-05-03T15:30:26.151Z,4.20
2019-05-03T15:33:01.554Z,3.00
2019-05-03T15:35:35.394Z,3.50
2019-05-03T15:38:09.128Z,4.50
2019-05-03T15:40:43.100Z,5.00
2019-05-03T15:43:16.795Z,5.00
2019-05-03T15:45:50.839Z,5.00
2019-05-03T15:48:26.764Z,5.50
2019-05-03T15:51:00.499Z,5.00
2019-05-03T15:53:35.332Z,5.50
2019-05-03T15:56:09.254Z,4.75
2019-05-03T15:58:44.965Z,5.60
2019-05-03T16:01:18.393Z,5.50
2019-05-03T16:03:52.134Z,2.80
2019-05-03T16:06:25.834Z,3.50
2019-05-03T16:08:59.530Z,4.50
2019-05-03T16:11:34.386Z,2.20
2019-05-03T16:14:08.155Z,6.20
2019-05-03T16:16:41.881Z,5.00
2019-05-03T16:19:15.588Z,5.00
2019-05-03T16:21:49.314Z,5.00
2019-05-03T16:24:24.781Z,5.00
2019-05-03T16:26:58.467Z,5.75
2019-05-03T16:29:32.250Z,5.80
2019-05-03T16:32:05.960Z,5.00
2019-05-03T16:34:39.643Z,4.75
2019-05-03T16:37:14.862Z,4.00
2019-05-03T16:39:48.769Z,4.75
2019-05-03T16:42:24.484Z,0.00
2019-05-03T16:44:57.865Z,5.00
2019-05-03T16:47:31.680Z,5.00
2019-05-03T16:50:06.489Z,4.50
2019-05-03T16:52:40.376Z,5.40
2019-05-03T16:55:14.707Z,2.00
2019-05-03T16:57:49.579Z,4.00
2019-05-03T17:00:25.023Z,4.75
2019-05-03T17:02:58.911Z,4.00
2019-05-03T17:05:34.407Z,2.00
2019-05-03T17:08:08.011Z,5.00
2019-05-03T17:10:41.711Z,4.00
2019-05-03T17:13:15.443Z,1.20
2019-05-03T17:15:49.177Z,2.00
2019-05-03T17:18:24.644Z,4.00
2019-05-03T17:20:58.414Z,4.80
2019-05-03T17:23:32.124Z,2.00
2019-05-03T17:26:05.837Z,2.00
2019-05-03T17:28:39.594Z,5.00
2019-05-03T17:31:13.626Z,4.40
2019-05-03T17:33:53.166Z,4.40
2019-05-03T17:36:24.909Z,4.00
2019-05-03T17:38:58.227Z,4.00
2019-05-03T17:41:32.000Z,5.00
2019-05-03T17:44:05.737Z,4.00
2019-05-03T17:46:40.704Z,5.00
2019-05-03T17:49:14.809Z,2.80
2019-05-03T17:51:49.505Z,3.00
2019-05-03T17:54:25.132Z,0.00
2019-05-03T17:56:58.623Z,3.60
2019-05-03T17:59:32.390Z,5.00
2019-05-03T18:02:06.892Z,4.00
2019-05-03T18:04:40.730Z,4.60
2019-05-03T18:07:14.952Z,4.00
2019-05-03T18:09:48.860Z,5.00
2019-05-03T18:12:24.328Z,2.00
2019-05-03T18:14:58.238Z,4.00
2019-05-03T18:17:32.007Z,3.00
2019-05-03T18:20:05.752Z,4.20
2019-05-03T18:22:39.467Z,4.00
2019-05-03T18:25:14.286Z,4.60
2019-05-03T18:27:48.120Z,4.00
2019-05-03T18:30:21.881Z,4.00
2019-05-03T18:32:55.582Z,3.50
2019-05-03T18:35:29.295Z,4.25
2019-05-03T18:38:03.011Z,4.25
2019-05-03T18:40:36.731Z,4.60
2019-05-03T18:43:10.429Z,4.00
2019-05-03T18:45:45.304Z,5.00
2019-05-03T18:48:19.263Z,3.50
2019-05-03T18:50:54.693Z,4.00
2019-05-03T18:53:28.454Z,4.00
2019-05-03T18:56:02.164Z,3.50
2019-05-03T18:58:35.867Z,2.00
2019-05-03T19:01:09.595Z,5.00
2019-05-03T19:03:45.073Z,5.00
2019-05-03T19:06:18.990Z,5.00
2019-05-03T19:08:54.313Z,4.50
2019-05-03T19:11:28.197Z,4.00
2019-05-03T19:14:02.030Z,4.40
2019-05-03T19:16:35.746Z,5.25
2019-05-03T19:19:09.434Z,3.50
2019-05-03T19:21:44.462Z,4.75
2019-05-03T19:24:18.288Z,4.00
2019-05-03T19:26:51.987Z,2.00
2019-05-03T19:29:25.753Z,4.00
2019-05-03T19:31:59.467Z,4.50
2019-05-03T19:34:46.833Z,2.50
2019-05-03T19:37:08.917Z,3.50
2019-05-03T19:39:42.647Z,5.25
2019-05-03T19:42:16.350Z,4.00
2019-05-03T19:44:50.055Z,5.00
2019-05-03T19:47:25.279Z,5.75
2019-05-03T19:49:59.099Z,4.00
2019-05-03T19:52:34.678Z,5.00
2019-05-03T19:55:08.332Z,4.00
2019-05-03T19:57:42.044Z,4.00
2019-05-03T20:00:15.761Z,5.00
2019-05-03T20:02:49.627Z,5.75
2019-05-03T20:05:25.088Z,4.75
2019-05-03T20:07:58.783Z,4.00
2019-05-03T20:10:32.475Z,4.25
2019-05-03T20:13:06.253Z,5.80
2019-05-03T20:15:40.008Z,8.00
2019-05-03T20:18:15.022Z,6.25
2019-05-03T20:20:49.118Z,7.75
2019-05-03T20:23:25.018Z,6.50
2019-05-03T20:25:58.410Z,7.80
2019-05-03T20:28:33.159Z,8.00
2019-05-03T20:31:07.639Z,5.50
2019-05-03T20:33:41.376Z,8.20
2019-05-03T20:36:15.176Z,8.00
2019-05-03T20:38:49.045Z,6.50
2019-05-03T20:41:24.942Z,7.50
2019-05-03T20:43:58.181Z,6.25
2019-05-03T20:46:31.884Z,6.50
2019-05-03T20:49:05.584Z,7.00
2019-05-03T20:51:39.302Z,7.40
2019-05-03T20:54:15.284Z,5.20
2019-05-03T20:56:49.153Z,8.00
2019-05-03T20:59:22.882Z,5.00
2019-05-03T21:01:57.073Z,4.00
2019-05-03T21:04:31.525Z,1.80
2019-05-03T21:07:05.324Z,2.00
2019-05-03T21:09:39.132Z,3.00
2019-05-03T21:12:14.911Z,1.20
2019-05-03T21:14:48.694Z,2.00
2019-05-03T21:17:22.402Z,2.00
2019-05-03T21:19:56.093Z,2.00
2019-05-03T21:22:29.795Z,1.25
2019-05-03T21:25:06.453Z,1.80
2019-05-03T21:27:40.242Z,1.75
2019-05-03T21:30:15.607Z,1.50
2019-05-03T21:32:49.307Z,2.00
2019-05-03T21:35:25.089Z,2.00
2019-05-03T21:37:58.378Z,2.00
2019-05-03T21:40:32.082Z,1.75
2019-05-03T21:43:05.757Z,2.00
2019-05-03T21:45:39.486Z,4.00
2019-05-03T21:48:14.580Z,2.00
2019-05-03T21:50:48.415Z,2.00
2019-05-03T21:53:22.104Z,2.00
2019-05-03T21:55:55.792Z,3.50
2019-05-03T21:58:29.518Z,1.80
2019-05-03T22:01:05.083Z,2.00
2019-05-03T22:03:38.618Z,2.00
2019-05-03T22:06:12.298Z,3.50
2019-05-03T22:08:46.020Z,4.25
2019-05-03T22:11:19.812Z,2.00
2019-05-03T22:13:54.217Z,2.00
2019-05-03T22:16:28.921Z,2.00
2019-05-03T22:19:02.687Z,5.00
2019-05-03T22:21:36.941Z,2.00
2019-05-03T22:24:10.787Z,2.00
2019-05-03T22:26:45.246Z,3.50
2019-05-03T22:29:19.129Z,4.50
2019-05-03T22:31:54.681Z,4.00
2019-05-03T22:34:28.246Z,2.00
2019-05-03T22:37:02.419Z,0.75
2019-05-03T22:39:48.614Z,4.25
2019-05-03T22:42:22.336Z,2.00
2019-05-03T22:44:56.023Z,2.00
2019-05-03T22:47:30.073Z,2.40
2019-05-03T22:50:05.428Z,2.00
2019-05-03T22:52:39.279Z,2.50
2019-05-03T22:55:15.306Z,2.00
2019-05-03T22:57:49.211Z,2.00
2019-05-03T23:00:25.030Z,4.25
2019-05-03T23:02:58.293Z,2.00
2019-05-03T23:05:32.009Z,4.25
2019-05-03T23:08:05.694Z,4.00
2019-05-03T23:10:39.430Z,2.00
2019-05-03T23:13:13.132Z,3.25
2019-05-03T23:15:46.832Z,2.00
2019-05-03T23:18:20.521Z,2.50
2019-05-03T23:20:55.267Z,3.00
2019-05-03T23:23:29.086Z,2.00
2019-05-03T23:26:04.466Z,2.00
2019-05-03T23:28:38.353Z,3.00
2019-05-03T23:31:14.715Z,3.33
2019-05-03T23:33:48.574Z,5.00
2019-05-03T23:36:32.718Z,2.00
2019-05-03T23:38:58.448Z,4.00
2019-05-03T23:41:32.128Z,2.00
2019-05-03T23:44:05.855Z,3.60
2019-05-03T23:46:39.523Z,4.00
2019-05-03T23:49:14.470Z,4.00
2019-05-03T23:51:48.769Z,4.25
2019-05-03T23:54:24.523Z,4.25
2019-05-03T23:56:57.868Z,2.00
2019-05-03T23:59:31.564Z,4.75
